createdAt,value
2023-01-28T00:00:57.147Z,85.02
2023-01-28T00:03:25.541Z,85.07
2023-01-28T00:05:54.377Z,85.48
2023-01-28T00:08:22.135Z,85.36
2023-01-28T00:10:49.943Z,85.16
2023-01-28T00:13:17.710Z,85.04
2023-01-28T00:15:45.915Z,85.24
2023-01-28T00:18:14.156Z,84.72
2023-01-28T00:20:41.832Z,85.47
2023-01-28T00:23:09.543Z,85.02
2023-01-28T00:25:37.364Z,85.08
2023-01-28T00:28:05.419Z,84.87
2023-01-28T00:30:33.181Z,84.97
2023-01-28T00:33:00.955Z,85.60
2023-01-28T00:35:30.364Z,85.59
2023-01-28T00:37:58.056Z,85.89
2023-01-28T00:40:27.578Z,85.46
2023-01-28T00:42:55.294Z,85.31
2023-01-28T00:45:22.993Z,85.26
2023-01-28T00:47:50.668Z,85.42
2023-01-28T00:50:18.342Z,85.55
2023-01-28T00:52:46.663Z,85.34
2023-01-28T00:55:14.587Z,85.38
2023-01-28T00:57:42.562Z,85.33
2023-01-28T01:00:10.228Z,85.58
2023-01-28T01:02:40.903Z,85.62
2023-01-28T01:05:09.734Z,85.33
2023-01-28T01:07:42.908Z,85.51
2023-01-28T01:10:10.535Z,85.69
2023-01-28T01:12:38.204Z,85.45
2023-01-28T01:15:09.227Z,84.78
2023-01-28T01:17:38.676Z,85.27
2023-01-28T01:20:06.499Z,85.43
2023-01-28T01:22:34.193Z,84.91
2023-01-28T01:25:01.852Z,84.83
2023-01-28T01:27:29.479Z,85.40
2023-01-28T01:29:57.694Z,85.15
2023-01-28T01:32:25.359Z,84.95
2023-01-28T01:34:53.061Z,85.23
2023-01-28T01:37:20.759Z,84.67
2023-01-28T01:39:49.159Z,85.18
2023-01-28T01:42:17.210Z,85.17
2023-01-28T01:44:45.425Z,84.48
2023-01-28T01:47:13.029Z,84.73
2023-01-28T01:49:40.726Z,84.73
2023-01-28T01:52:08.421Z,84.93
2023-01-28T01:54:36.470Z,84.75
2023-01-28T01:57:04.079Z,84.72
2023-01-28T01:59:31.753Z,85.52
2023-01-28T02:01:59.416Z,84.96
2023-01-28T02:04:27.097Z,85.43
2023-01-28T02:06:57.159Z,85.29
2023-01-28T02:09:24.762Z,84.63
2023-01-28T02:11:52.383Z,84.93
2023-01-28T02:14:30.517Z,84.95
2023-01-28T02:16:59.204Z,85.26
2023-01-28T02:19:26.853Z,84.78
2023-01-28T02:21:54.537Z,84.82
2023-01-28T02:24:22.209Z,84.44
2023-01-28T02:26:49.926Z,84.90
2023-01-28T02:29:17.876Z,85.18
2023-01-28T02:31:45.622Z,84.55
2023-01-28T02:34:13.340Z,85.18
2023-01-28T02:36:40.949Z,84.66
2023-01-28T02:39:08.578Z,84.78
2023-01-28T02:41:36.592Z,84.98
2023-01-28T02:44:04.363Z,84.96
2023-01-28T02:46:49.270Z,84.59
2023-01-28T02:49:16.901Z,85.00
2023-01-28T02:51:44.897Z,84.97
2023-01-28T02:54:11.537Z,85.00
2023-01-28T02:56:39.159Z,84.90
2023-01-28T02:59:26.760Z,84.44
2023-01-28T03:01:58.806Z,85.15
2023-01-28T03:04:26.420Z,84.97
2023-01-28T03:06:54.479Z,84.65
2023-01-28T03:09:27.007Z,84.74
2023-01-28T03:12:12.746Z,84.30
2023-01-28T03:14:57.597Z,85.21
2023-01-28T03:17:42.624Z,85.10
2023-01-28T03:20:27.543Z,84.97
2023-01-28T03:23:12.893Z,84.61
2023-01-28T03:25:57.836Z,85.03
2023-01-28T03:28:42.992Z,84.97
2023-01-28T03:31:28.052Z,84.88
2023-01-28T03:34:13.322Z,84.83
2023-01-28T03:36:50.732Z,84.45
2023-01-28T03:39:18.392Z,84.48
2023-01-28T03:41:45.991Z,84.12
2023-01-28T03:44:31.586Z,84.31
2023-01-28T03:46:59.354Z,84.23
2023-01-28T03:49:27.393Z,84.58
2023-01-28T03:51:55.031Z,84.09
2023-01-28T03:54:22.650Z,84.10
2023-01-28T03:56:50.585Z,84.51
2023-01-28T03:59:18.479Z,84.26
2023-01-28T04:01:46.128Z,84.85
2023-01-28T04:04:23.124Z,83.86
2023-01-28T04:06:50.737Z,84.38
2023-01-28T04:09:18.358Z,84.44
2023-01-28T04:11:46.455Z,83.72
2023-01-28T04:14:14.565Z,83.95
2023-01-28T04:16:42.181Z,84.23
2023-01-28T04:19:10.131Z,83.83
2023-01-28T04:21:37.769Z,84.18
2023-01-28T04:24:05.436Z,83.90
2023-01-28T04:26:33.097Z,84.30
2023-01-28T04:29:00.728Z,84.30
2023-01-28T04:31:28.734Z,84.00
2023-01-28T04:33:57.926Z,83.72
2023-01-28T04:36:25.522Z,84.03
2023-01-28T04:38:53.107Z,84.19
2023-01-28T04:41:20.796Z,83.90
2023-01-28T04:43:49.848Z,84.17
2023-01-28T04:46:17.685Z,83.73
2023-01-28T04:48:45.476Z,83.84
2023-01-28T04:51:13.111Z,83.71
2023-01-28T04:53:40.743Z,83.80
2023-01-28T04:56:09.092Z,83.64
2023-01-28T04:58:36.677Z,84.23
2023-01-28T05:01:04.300Z,83.98
2023-01-28T05:03:31.977Z,83.64
2023-01-28T05:05:59.711Z,83.76
2023-01-28T05:08:27.707Z,84.25
2023-01-28T05:10:55.534Z,84.15
2023-01-28T05:13:23.163Z,83.43
2023-01-28T05:15:50.752Z,83.51
2023-01-28T05:18:18.765Z,83.85
2023-01-28T05:20:46.750Z,84.23
2023-01-28T05:23:14.572Z,84.08
2023-01-28T05:25:42.233Z,84.17
2023-01-28T05:28:09.832Z,83.39
2023-01-28T05:30:37.438Z,83.52
2023-01-28T05:33:05.422Z,83.94
2023-01-28T05:35:33.215Z,83.98
2023-01-28T05:38:00.848Z,83.86
2023-01-28T05:40:28.927Z,83.93
2023-01-28T05:42:56.520Z,83.97
2023-01-28T05:45:24.629Z,83.27
2023-01-28T05:47:52.305Z,83.62
2023-01-28T05:50:19.907Z,84.11
2023-01-28T05:52:47.541Z,84.00
2023-01-28T05:55:15.211Z,83.77
2023-01-28T05:57:44.959Z,83.58
2023-01-28T06:00:13.373Z,83.09
2023-01-28T06:02:41.523Z,83.80
2023-01-28T06:05:09.181Z,83.91
2023-01-28T06:07:36.815Z,83.73
2023-01-28T06:10:04.842Z,83.31
2023-01-28T06:12:32.472Z,83.60
2023-01-28T06:15:00.103Z,83.41
2023-01-28T06:17:27.776Z,83.82
2023-01-28T06:19:55.358Z,83.63
2023-01-28T06:22:23.349Z,83.32
2023-01-28T06:24:50.984Z,83.57
2023-01-28T06:27:18.571Z,83.14
2023-01-28T06:29:46.173Z,84.07
2023-01-28T06:32:13.908Z,83.33
2023-01-28T06:34:42.514Z,83.69
2023-01-28T06:37:10.110Z,83.22
2023-01-28T06:39:37.756Z,83.79
2023-01-28T06:42:05.407Z,84.04
2023-01-28T06:44:33.032Z,83.36
2023-01-28T06:47:01.499Z,83.21
2023-01-28T06:49:29.266Z,83.46
2023-01-28T06:51:56.920Z,83.61
2023-01-28T06:54:24.591Z,83.53
2023-01-28T06:56:52.216Z,83.38
2023-01-28T06:59:20.168Z,83.51
2023-01-28T07:01:47.884Z,83.36
2023-01-28T07:04:15.535Z,83.36
2023-01-28T07:06:43.266Z,83.27
2023-01-28T07:09:11.730Z,83.33
2023-01-28T07:11:39.747Z,83.62
2023-01-28T07:14:07.661Z,83.69
2023-01-28T07:16:35.366Z,83.71
2023-01-28T07:19:03.014Z,83.12
2023-01-28T07:21:30.599Z,83.26
2023-01-28T07:23:58.645Z,83.69
2023-01-28T07:26:26.794Z,83.98
2023-01-28T07:28:54.375Z,83.68
2023-01-28T07:31:22.586Z,83.63
2023-01-28T07:33:50.260Z,83.19
2023-01-28T07:36:18.269Z,83.53
2023-01-28T07:38:45.981Z,83.33
2023-01-28T07:41:13.631Z,83.40
2023-01-28T07:43:41.247Z,83.41
2023-01-28T07:46:08.926Z,83.55
2023-01-28T07:48:37.427Z,83.83
2023-01-28T07:51:05.305Z,83.15
2023-01-28T07:53:33.035Z,83.25
2023-01-28T07:56:00.924Z,83.77
2023-01-28T07:58:28.579Z,83.49
2023-01-28T08:00:56.623Z,82.93
2023-01-28T08:03:24.499Z,82.87
2023-01-28T08:05:52.204Z,83.21
2023-01-28T08:08:19.984Z,82.72
2023-01-28T08:10:47.632Z,82.60
2023-01-28T08:13:15.647Z,82.94
2023-01-28T08:15:43.372Z,83.02
2023-01-28T08:18:13.144Z,82.53
2023-01-28T08:20:41.103Z,83.09
2023-01-28T08:23:08.781Z,82.66
2023-01-28T08:25:36.862Z,83.12
2023-01-28T08:28:04.679Z,82.40
2023-01-28T08:30:32.541Z,82.81
2023-01-28T08:33:00.283Z,82.50
2023-01-28T08:35:28.523Z,82.71
2023-01-28T08:37:56.732Z,81.80
2023-01-28T08:40:24.639Z,82.19
2023-01-28T08:42:52.585Z,83.03
2023-01-28T08:45:20.368Z,82.32
2023-01-28T08:47:48.161Z,82.62
2023-01-28T08:50:16.234Z,82.29
2023-01-28T08:52:44.821Z,82.33
2023-01-28T08:55:12.677Z,81.92
2023-01-28T08:57:40.700Z,81.72
2023-01-28T09:00:08.589Z,82.04
2023-01-28T09:02:36.576Z,81.82
2023-01-28T09:05:04.753Z,82.25
2023-01-28T09:07:32.599Z,82.20
2023-01-28T09:10:00.409Z,81.95
2023-01-28T09:12:28.140Z,82.43
2023-01-28T09:14:55.900Z,82.17
2023-01-28T09:17:23.826Z,81.60
2023-01-28T09:19:52.257Z,81.81
2023-01-28T09:22:20.080Z,81.45
2023-01-28T09:24:47.917Z,81.82
2023-01-28T09:27:16.068Z,81.74
2023-01-28T09:29:44.395Z,81.81
2023-01-28T09:32:12.140Z,81.86
2023-01-28T09:34:40.148Z,81.05
2023-01-28T09:37:07.992Z,81.64
2023-01-28T09:39:35.853Z,81.15
2023-01-28T09:42:05.798Z,81.12
2023-01-28T09:44:33.649Z,81.35
2023-01-28T09:47:01.905Z,81.72
2023-01-28T09:49:29.896Z,81.68
2023-01-28T09:51:58.089Z,80.93
2023-01-28T09:54:26.012Z,81.25
2023-01-28T09:56:53.850Z,80.95
2023-01-28T09:59:21.672Z,81.43
2023-01-28T10:01:49.757Z,81.28
2023-01-28T10:04:17.907Z,81.21
2023-01-28T10:06:45.958Z,81.48
2023-01-28T10:09:13.840Z,81.70
2023-01-28T10:11:41.633Z,81.31
2023-01-28T10:14:09.505Z,81.21
2023-01-28T10:16:37.743Z,81.37
2023-01-28T10:19:05.678Z,81.04
2023-01-28T10:21:33.670Z,81.25
2023-01-28T10:24:01.668Z,81.51
2023-01-28T10:26:29.997Z,80.50
2023-01-28T10:28:58.692Z,81.04
2023-01-28T10:31:26.665Z,80.52
2023-01-28T10:33:54.543Z,81.17
2023-01-28T10:36:22.583Z,80.20
2023-01-28T10:38:50.495Z,80.62
2023-01-28T10:41:18.703Z,80.50
2023-01-28T10:43:46.949Z,80.14
2023-01-28T10:46:14.965Z,79.79
2023-01-28T10:48:43.221Z,79.79
2023-01-28T10:51:11.334Z,79.71
2023-01-28T10:53:39.723Z,80.18
2023-01-28T10:56:08.123Z,80.15
2023-01-28T10:58:36.061Z,79.99
2023-01-28T11:01:03.919Z,79.60
2023-01-28T11:03:32.333Z,79.71
2023-01-28T11:06:01.015Z,79.83
2023-01-28T11:08:29.199Z,79.45
2023-01-28T11:11:01.206Z,79.33
2023-01-28T11:13:29.121Z,79.70
2023-01-28T11:15:56.993Z,79.82
2023-01-28T11:18:25.765Z,79.54
2023-01-28T11:20:53.948Z,79.60
2023-01-28T11:23:21.799Z,79.99
2023-01-28T11:25:50.006Z,79.75
2023-01-28T11:28:17.815Z,79.66
2023-01-28T11:30:46.048Z,79.41
2023-01-28T11:33:15.386Z,79.88
2023-01-28T11:35:43.241Z,80.08
2023-01-28T11:38:11.009Z,79.31
2023-01-28T11:40:39.001Z,79.74
2023-01-28T11:43:07.164Z,79.59
2023-01-28T11:45:35.251Z,79.50
2023-01-28T11:48:03.281Z,79.83
2023-01-28T11:50:31.133Z,79.94
2023-01-28T11:53:07.670Z,79.84
2023-01-28T11:55:36.671Z,79.78
2023-01-28T11:58:04.780Z,79.50
2023-01-28T12:00:33.050Z,79.48
2023-01-28T12:03:01.192Z,79.12
2023-01-28T12:05:29.020Z,79.33
2023-01-28T12:07:57.507Z,79.55
2023-01-28T12:10:25.600Z,79.20
2023-01-28T12:12:53.370Z,79.07
2023-01-28T12:15:21.878Z,79.59
2023-01-28T12:17:49.762Z,79.03
2023-01-28T12:20:18.384Z,78.97
2023-01-28T12:22:46.478Z,78.44
2023-01-28T12:25:14.564Z,78.69
2023-01-28T12:27:42.658Z,78.53
2023-01-28T12:30:10.575Z,78.40
2023-01-28T12:32:40.332Z,78.48
2023-01-28T12:35:08.441Z,78.61
2023-01-28T12:37:36.734Z,78.48
2023-01-28T12:40:04.813Z,78.15
2023-01-28T12:42:32.632Z,78.01
2023-01-28T12:45:00.834Z,78.12
2023-01-28T12:47:28.820Z,77.33
2023-01-28T12:49:57.450Z,76.95
2023-01-28T12:52:25.413Z,75.75
2023-01-28T12:54:53.561Z,74.86
2023-01-28T12:57:22.353Z,74.20
2023-01-28T12:59:50.666Z,73.84
2023-01-28T13:02:19.038Z,73.53
2023-01-28T13:04:46.989Z,73.01
2023-01-28T13:07:15.023Z,72.90
2023-01-28T13:09:44.121Z,73.00
2023-01-28T13:12:13.778Z,73.14
2023-01-28T13:14:41.779Z,73.50
2023-01-28T13:17:09.905Z,73.31
2023-01-28T13:19:38.029Z,73.11
2023-01-28T13:22:06.305Z,72.86
2023-01-28T13:24:34.458Z,73.09
2023-01-28T13:27:02.388Z,73.35
2023-01-28T13:29:30.701Z,73.65
2023-01-28T13:31:58.698Z,74.46
2023-01-28T13:34:26.737Z,73.84
2023-01-28T13:36:54.727Z,73.73
2023-01-28T13:39:22.623Z,74.13
2023-01-28T13:41:50.974Z,74.18
2023-01-28T13:44:18.909Z,74.36
2023-01-28T13:46:47.817Z,74.92
2023-01-28T13:49:15.706Z,74.79
2023-01-28T13:51:43.570Z,75.54
2023-01-28T13:54:11.615Z,76.03
2023-01-28T13:56:39.479Z,76.75
2023-01-28T13:59:07.801Z,76.79
2023-01-28T14:01:35.941Z,77.07
2023-01-28T14:04:04.234Z,76.92
2023-01-28T14:06:32.109Z,77.01
2023-01-28T14:09:00.186Z,76.64
2023-01-28T14:11:28.024Z,76.24
2023-01-28T14:13:55.964Z,76.06
2023-01-28T14:16:23.966Z,75.20
2023-01-28T14:18:52.021Z,75.16
2023-01-28T14:21:19.895Z,75.09
2023-01-28T14:23:49.310Z,74.82
2023-01-28T14:26:18.125Z,74.20
2023-01-28T14:28:46.079Z,73.54
2023-01-28T14:31:14.257Z,72.96
2023-01-28T14:33:42.237Z,72.10
2023-01-28T14:36:10.567Z,71.59
2023-01-28T14:38:38.523Z,71.43
2023-01-28T14:41:06.333Z,71.07
2023-01-28T14:43:34.232Z,71.48
2023-01-28T14:46:04.030Z,71.16
2023-01-28T14:48:35.326Z,70.20
2023-01-28T14:51:03.371Z,69.33
2023-01-28T14:53:31.275Z,68.78
2023-01-28T14:55:59.282Z,68.40
2023-01-28T14:58:27.347Z,68.62
2023-01-28T15:00:55.424Z,68.44
2023-01-28T15:03:25.123Z,67.77
2023-01-28T15:05:53.820Z,68.06
2023-01-28T15:08:21.837Z,68.04
2023-01-28T15:10:50.280Z,68.17
2023-01-28T15:13:18.929Z,69.26
2023-01-28T15:15:46.799Z,70.52
2023-01-28T15:18:14.630Z,72.85
2023-01-28T15:20:42.702Z,74.22
2023-01-28T15:23:10.447Z,75.28
2023-01-28T15:25:38.814Z,76.43
2023-01-28T15:28:06.875Z,76.57
2023-01-28T15:30:34.887Z,77.38
2023-01-28T15:33:03.179Z,78.03
2023-01-28T15:35:31.177Z,78.61
2023-01-28T15:37:59.847Z,79.56
2023-01-28T15:40:27.940Z,79.40
2023-01-28T15:42:56.024Z,79.27
2023-01-28T15:45:23.968Z,79.80
2023-01-28T15:47:51.929Z,80.49
2023-01-28T15:50:20.301Z,80.02
2023-01-28T15:52:48.151Z,80.60
2023-01-28T15:55:18.276Z,80.45
2023-01-28T15:57:47.412Z,80.76
2023-01-28T16:00:15.322Z,80.76
2023-01-28T16:02:43.829Z,80.88
2023-01-28T16:05:12.834Z,81.17
2023-01-28T16:07:40.819Z,80.84
2023-01-28T16:10:08.700Z,81.03
2023-01-28T16:12:36.717Z,81.03
2023-01-28T16:15:07.673Z,81.42
2023-01-28T16:17:35.508Z,81.02
2023-01-28T16:20:03.423Z,81.19
2023-01-28T16:22:31.276Z,81.67
2023-01-28T16:24:59.224Z,80.80
2023-01-28T16:27:28.062Z,81.76
2023-01-28T16:29:56.002Z,81.71
2023-01-28T16:32:23.865Z,81.89
2023-01-28T16:34:51.962Z,81.44
2023-01-28T16:37:20.514Z,81.82
2023-01-28T16:39:48.632Z,81.77
2023-01-28T16:42:16.632Z,81.89
2023-01-28T16:44:44.644Z,81.78
2023-01-28T16:47:12.492Z,81.41
2023-01-28T16:49:40.617Z,81.68
2023-01-28T16:52:09.308Z,81.99
2023-01-28T16:54:37.150Z,81.94
2023-01-28T16:57:05.182Z,81.73
2023-01-28T16:59:33.444Z,81.45
2023-01-28T17:02:01.283Z,82.15
2023-01-28T17:04:29.977Z,81.79
2023-01-28T17:06:57.985Z,81.98
2023-01-28T17:09:25.993Z,82.16
2023-01-28T17:11:54.261Z,81.85
2023-01-28T17:14:22.197Z,81.88
2023-01-28T17:16:50.966Z,82.04
2023-01-28T17:19:18.948Z,82.16
2023-01-28T17:21:46.801Z,81.67
2023-01-28T17:24:14.686Z,81.99
2023-01-28T17:26:42.590Z,82.01
2023-01-28T17:29:11.153Z,82.44
2023-01-28T17:31:39.181Z,81.59
2023-01-28T17:34:08.649Z,81.79
2023-01-28T17:36:36.665Z,82.21
2023-01-28T17:39:04.758Z,81.37
2023-01-28T17:41:35.335Z,82.38
2023-01-28T17:44:04.734Z,81.98
2023-01-28T17:46:32.635Z,81.79
2023-01-28T17:49:00.644Z,81.95
2023-01-28T17:51:28.516Z,82.38
2023-01-28T17:53:57.416Z,81.82
2023-01-28T17:56:26.096Z,81.82
2023-01-28T17:58:53.925Z,82.03
2023-01-28T18:01:21.978Z,82.20
2023-01-28T18:03:50.731Z,82.14
2023-01-28T18:06:19.264Z,82.51
2023-01-28T18:08:47.071Z,82.30
2023-01-28T18:11:15.129Z,82.23
2023-01-28T18:13:42.933Z,81.93
2023-01-28T18:16:10.801Z,82.26
2023-01-28T18:18:39.646Z,82.20
2023-01-28T18:21:07.419Z,82.04
2023-01-28T18:23:35.227Z,82.16
2023-01-28T18:26:04.647Z,82.08
2023-01-28T18:28:32.514Z,82.21
2023-01-28T18:31:00.950Z,82.28
2023-01-28T18:33:28.914Z,81.81
2023-01-28T18:35:56.811Z,82.69
2023-01-28T18:38:24.762Z,82.55
2023-01-28T18:40:52.725Z,82.57
2023-01-28T18:43:21.290Z,82.30
2023-01-28T18:45:50.797Z,82.42
2023-01-28T18:48:19.170Z,82.46
2023-01-28T18:50:47.181Z,82.15
2023-01-28T18:53:15.092Z,82.36
2023-01-28T18:55:43.115Z,82.09
2023-01-28T18:58:11.065Z,82.42
2023-01-28T19:00:39.205Z,82.08
2023-01-28T19:03:07.209Z,82.38
2023-01-28T19:05:35.174Z,82.05
2023-01-28T19:08:04.068Z,83.10
2023-01-28T19:10:32.432Z,82.27
2023-01-28T19:13:00.393Z,83.09
2023-01-28T19:15:28.369Z,82.25
2023-01-28T19:17:56.274Z,82.34
2023-01-28T19:20:24.908Z,82.70
2023-01-28T19:22:53.015Z,82.26
2023-01-28T19:25:21.053Z,82.44
2023-01-28T19:27:48.860Z,82.81
2023-01-28T19:30:17.038Z,82.27
2023-01-28T19:32:46.788Z,82.21
2023-01-28T19:35:15.102Z,82.54
2023-01-28T19:37:43.173Z,82.12
2023-01-28T19:40:11.312Z,82.31
2023-01-28T19:42:39.386Z,82.65
2023-01-28T19:45:08.795Z,82.13
2023-01-28T19:47:36.916Z,83.00
2023-01-28T19:50:04.822Z,82.51
2023-01-28T19:52:32.743Z,82.67
2023-01-28T19:55:00.864Z,82.62
2023-01-28T19:57:29.789Z,82.23
2023-01-28T19:59:57.904Z,83.28
2023-01-28T20:02:25.917Z,82.77
2023-01-28T20:05:00.649Z,82.43
2023-01-28T20:07:29.254Z,82.37
2023-01-28T20:09:57.636Z,82.28
2023-01-28T20:12:25.531Z,82.62
2023-01-28T20:14:53.987Z,82.26
2023-01-28T20:17:22.070Z,82.80
2023-01-28T20:19:50.690Z,82.50
2023-01-28T20:22:19.015Z,82.75
2023-01-28T20:24:46.942Z,82.70
2023-01-28T20:27:14.756Z,82.85
2023-01-28T20:29:42.831Z,82.28
2023-01-28T20:32:18.270Z,82.73
2023-01-28T20:34:47.642Z,82.66
2023-01-28T20:37:15.538Z,82.57
2023-01-28T20:39:43.978Z,82.67
2023-01-28T20:42:13.810Z,82.75
2023-01-28T20:44:41.860Z,83.02
2023-01-28T20:47:10.274Z,82.97
2023-01-28T20:49:38.409Z,82.97
2023-01-28T20:52:06.283Z,82.84
2023-01-28T20:54:34.443Z,82.71
2023-01-28T20:57:02.863Z,82.70
2023-01-28T20:59:33.170Z,82.76
2023-01-28T21:02:01.683Z,82.31
2023-01-28T21:04:29.876Z,83.14
2023-01-28T21:06:58.409Z,82.41
2023-01-28T21:09:28.094Z,82.67
2023-01-28T21:11:56.766Z,82.87
2023-01-28T21:14:24.670Z,82.83
2023-01-28T21:16:53.261Z,82.65
2023-01-28T21:19:22.616Z,82.75
2023-01-28T21:21:50.561Z,82.47
2023-01-28T21:24:18.805Z,82.79
2023-01-28T21:26:46.854Z,82.47
2023-01-28T21:29:14.942Z,82.51
2023-01-28T21:31:44.418Z,82.51
2023-01-28T21:34:12.535Z,83.10
2023-01-28T21:36:40.836Z,82.86
2023-01-28T21:39:08.756Z,82.38
2023-01-28T21:41:37.295Z,82.81
2023-01-28T21:44:05.378Z,82.57
2023-01-28T21:46:33.414Z,82.67
2023-01-28T21:49:01.916Z,82.81
2023-01-28T21:51:39.899Z,82.79
2023-01-28T21:54:07.901Z,82.50
2023-01-28T21:56:35.757Z,82.64
2023-01-28T21:59:21.130Z,82.92
2023-01-28T22:01:49.399Z,83.21
2023-01-28T22:04:17.603Z,82.87
2023-01-28T22:06:45.569Z,83.08
2023-01-28T22:09:14.231Z,83.12
2023-01-28T22:11:42.678Z,82.88
2023-01-28T22:14:10.596Z,82.76
2023-01-28T22:16:38.542Z,83.39
2023-01-28T22:19:06.372Z,83.03
2023-01-28T22:21:37.860Z,83.15
2023-01-28T22:24:06.173Z,83.25
2023-01-28T22:26:34.057Z,83.71
2023-01-28T22:29:02.242Z,83.10
2023-01-28T22:31:30.359Z,83.07
2023-01-28T22:33:58.321Z,83.18
2023-01-28T22:36:26.268Z,83.29
2023-01-28T22:38:54.132Z,83.31
2023-01-28T22:41:23.637Z,83.57
2023-01-28T22:43:51.871Z,83.58
2023-01-28T22:46:20.024Z,83.41
2023-01-28T22:48:48.264Z,83.41
2023-01-28T22:51:16.180Z,83.47
2023-01-28T22:53:44.255Z,83.66
2023-01-28T22:56:12.171Z,83.67
2023-01-28T22:58:40.102Z,83.84
2023-01-28T23:01:08.661Z,83.74
2023-01-28T23:03:38.198Z,83.48
2023-01-28T23:06:06.321Z,83.35
2023-01-28T23:08:35.011Z,84.09
2023-01-28T23:11:02.778Z,83.51
2023-01-28T23:13:54.575Z,83.78
2023-01-28T23:16:39.692Z,83.72
2023-01-28T23:19:24.948Z,83.80
2023-01-28T23:22:10.015Z,83.38
2023-01-28T23:24:38.879Z,83.44
2023-01-28T23:27:06.786Z,83.93
2023-01-28T23:29:35.162Z,84.06
2023-01-28T23:32:03.820Z,83.28
2023-01-28T23:34:31.856Z,83.45
2023-01-28T23:37:00.241Z,83.66
2023-01-28T23:39:28.034Z,83.52
2023-01-28T23:41:55.839Z,83.55
2023-01-28T23:44:23.589Z,83.14
2023-01-28T23:46:51.535Z,83.94
2023-01-28T23:49:19.927Z,84.13
2023-01-28T23:51:47.831Z,83.17
2023-01-28T23:54:15.625Z,83.66
2023-01-28T23:56:43.386Z,83.74
2023-01-28T23:59:11.096Z,83.98
